createdAt,value
2023-02-11T00:01:21.476Z,11.2625
2023-02-11T00:04:17.212Z,9.7875
2023-02-11T00:07:17.235Z,8.25
2023-02-11T00:11:18.607Z,9.8
2023-02-11T00:14:17.304Z,10.85
2023-02-11T00:17:17.392Z,8.475000000000001
2023-02-11T00:21:18.475Z,10.649999999999999
2023-02-11T00:24:17.108Z,9.125
2023-02-11T00:27:17.210Z,9.3875
2023-02-11T00:31:18.831Z,10.3125
2023-02-11T00:34:17.491Z,9.0375
2023-02-11T00:37:17.169Z,8.05
2023-02-11T00:41:17.431Z,9.975000000000001
2023-02-11T00:44:16.853Z,7.362500000000001
2023-02-11T00:47:16.618Z,8.262500000000001
2023-02-11T00:51:16.386Z,8.925
2023-02-11T00:54:16.905Z,8.2125
2023-02-11T00:57:16.761Z,8.1
2023-02-11T01:01:16.425Z,8.037500000000001
2023-02-11T01:04:16.636Z,7.6125
2023-02-11T01:07:16.633Z,7.725
2023-02-11T01:11:19.636Z,9.35
2023-02-11T01:14:16.938Z,8.9875
2023-02-11T01:17:17.036Z,8.325
2023-02-11T01:21:16.752Z,10.3
2023-02-11T01:24:16.937Z,9.2375
2023-02-11T01:27:16.973Z,9.525
2023-02-11T01:31:16.808Z,10.25
2023-02-11T01:34:17.241Z,8.8
2023-02-11T01:37:17.122Z,8.399999999999999
2023-02-11T01:41:17.297Z,8.75
2023-02-11T01:44:27.224Z,7.050000000000001
2023-02-11T01:47:18.118Z,7.512499999999999
2023-02-11T01:51:20.564Z,7.825
2023-02-11T02:01:23.561Z,9.425
2023-02-11T02:04:18.930Z,8.6125
2023-02-11T02:07:24.462Z,8.0875
2023-02-11T02:11:16.897Z,8.6125
2023-02-11T02:14:17.963Z,7.925
2023-02-11T02:17:27.437Z,7.775
2023-02-11T02:21:58.088Z,8.3625
2023-02-11T02:24:54.976Z,8
2023-02-11T02:27:33.251Z,8.0875
2023-02-11T02:31:40.307Z,8.425
2023-02-11T02:34:23.342Z,7.6875
2023-02-11T02:37:21.040Z,6.9375
2023-02-11T02:41:21.420Z,8.15
2023-02-11T02:44:18.239Z,7.5
2023-02-11T02:47:17.483Z,9.1875
2023-02-11T02:51:33.773Z,8.5125
2023-02-11T02:54:34.946Z,7.324999999999999
2023-02-11T02:57:28.502Z,6.725
2023-02-11T03:01:28.993Z,8.1875
2023-02-11T03:04:25.590Z,6.7875000000000005
2023-02-11T03:07:24.850Z,7.3
2023-02-11T03:11:19.690Z,7.3625
2023-02-11T03:14:18.648Z,7.5625
2023-02-11T03:17:17.693Z,7.65
2023-02-11T03:21:18.949Z,7.924999999999999
2023-02-11T03:24:23.094Z,7.775
2023-02-11T03:27:21.299Z,8.0375
2023-02-11T03:31:26.411Z,9.600000000000001
2023-02-11T03:34:25.543Z,9.100000000000001
2023-02-11T03:37:21.430Z,7.375
2023-02-11T03:41:20.897Z,8.200000000000001
2023-02-11T03:44:20.365Z,7.75
2023-02-11T03:47:21.605Z,8.8125
2023-02-11T03:51:19.357Z,8.6375
2023-02-11T03:54:23.254Z,6.75
2023-02-11T03:57:16.917Z,6.7125
2023-02-11T04:01:16.298Z,7.25
2023-02-11T04:04:17.329Z,7.862499999999999
2023-02-11T04:07:16.587Z,7.9625
2023-02-11T04:11:16.710Z,7.7375
2023-02-11T04:14:17.053Z,7.0125
2023-02-11T04:17:17.201Z,6.7
2023-02-11T04:21:16.618Z,8.537500000000001
2023-02-11T04:24:17.365Z,6.8125
2023-02-11T04:27:16.787Z,7.1125
2023-02-11T04:31:16.845Z,7.2375
2023-02-11T04:34:17.125Z,7.025
2023-02-11T04:37:17.491Z,7.5625
2023-02-11T04:41:16.628Z,8.8
2023-02-11T04:44:16.860Z,7.7625
2023-02-11T04:47:17.061Z,7.4875
2023-02-11T04:51:16.691Z,7.6
2023-02-11T04:54:17.357Z,5.7375
2023-02-11T04:57:17.069Z,7.2749999999999995
2023-02-11T05:01:16.690Z,7.0875
2023-02-11T05:04:17.360Z,6.05
2023-02-11T05:07:16.872Z,6.074999999999999
2023-02-11T05:11:18.142Z,7.6
2023-02-11T05:14:16.575Z,6.762499999999999
2023-02-11T05:17:16.667Z,7.0875
2023-02-11T05:21:18.190Z,7.3
2023-02-11T05:24:16.588Z,6
2023-02-11T05:27:16.700Z,6.125
2023-02-11T05:31:17.387Z,6.8125
2023-02-11T05:34:16.632Z,6.15
2023-02-11T05:37:16.807Z,5.6375
2023-02-11T05:41:16.398Z,7.2875
2023-02-11T05:44:16.859Z,5.975
2023-02-11T05:47:16.879Z,6.55
2023-02-11T05:51:16.750Z,7.0875
2023-02-11T05:54:17.390Z,7.1625
2023-02-11T05:57:17.833Z,6.4875
2023-02-11T06:01:16.786Z,6.487499999999999
2023-02-11T06:04:16.919Z,5.199999999999999
2023-02-11T06:07:17.888Z,5.975
2023-02-11T06:11:17.062Z,6.35
2023-02-11T06:14:16.890Z,5.8
2023-02-11T06:17:16.840Z,6.0375
2023-02-11T06:21:16.515Z,6.8875
2023-02-11T06:24:28.551Z,4.6
2023-02-11T06:27:17.892Z,5.949999999999999
2023-02-11T06:31:18.872Z,6.8
2023-02-11T06:34:17.434Z,6.9125
2023-02-11T06:37:18.688Z,5.887499999999999
2023-02-11T06:41:18.398Z,6.35
2023-02-11T06:44:17.468Z,4.862500000000001
2023-02-11T06:47:18.576Z,4.75
2023-02-11T06:51:17.770Z,4.875
2023-02-11T06:54:17.050Z,4.3125
2023-02-11T06:57:17.690Z,4.9625
2023-02-11T07:01:20.169Z,6.1
2023-02-11T07:04:17.478Z,5.4375
2023-02-11T07:07:17.237Z,5.175
2023-02-11T07:11:19.872Z,5.5625
2023-02-11T07:14:17.526Z,5.7125
2023-02-11T07:17:17.469Z,5.55
2023-02-11T07:21:19.686Z,7.137499999999999
2023-02-11T07:24:17.878Z,5.012499999999999
2023-02-11T07:27:16.722Z,4.7875
2023-02-11T07:31:19.562Z,6.387499999999999
2023-02-11T07:34:16.871Z,7.4375
2023-02-11T07:37:16.695Z,5.9
2023-02-11T07:41:20.203Z,6.425
2023-02-11T07:44:17.739Z,6.9875
2023-02-11T07:47:17.623Z,11.25
2023-02-11T07:51:18.505Z,11.225000000000001
2023-02-11T07:54:17.552Z,9.3875
2023-02-11T07:57:17.047Z,6.975
2023-02-11T08:01:20.286Z,7.3125
2023-02-11T08:04:18.567Z,6.6375
2023-02-11T08:07:17.246Z,5.975
2023-02-11T08:11:19.303Z,6.55
2023-02-11T08:14:18.987Z,5.5874999999999995
2023-02-11T08:17:18.790Z,10.2875
2023-02-11T08:21:19.330Z,8.6
2023-02-11T08:24:17.973Z,6.3374999999999995
2023-02-11T08:27:20.732Z,5.862500000000001
2023-02-11T08:31:21.907Z,7.1499999999999995
2023-02-11T08:34:19.418Z,5.8374999999999995
2023-02-11T08:37:18.565Z,6.6875
2023-02-11T08:41:17.215Z,5.8
2023-02-11T08:44:18.560Z,5.8375
2023-02-11T08:47:16.847Z,6.225
2023-02-11T08:51:22.706Z,7.4624999999999995
2023-02-11T08:54:19.246Z,6.625
2023-02-11T08:57:17.698Z,6.425
2023-02-11T09:01:21.113Z,6.1625
2023-02-11T09:04:17.565Z,6.5625
2023-02-11T09:07:17.323Z,6.15
2023-02-11T09:11:19.364Z,8.475000000000001
2023-02-11T09:14:19.666Z,6.5875
2023-02-11T09:17:16.906Z,5.35
2023-02-11T09:21:19.309Z,7.300000000000001
2023-02-11T09:24:20.251Z,8.325
2023-02-11T09:27:17.148Z,8.025
2023-02-11T09:31:22.286Z,11.1875
2023-02-11T09:34:17.637Z,9.299999999999999
2023-02-11T09:37:17.467Z,9.712499999999999
2023-02-11T09:41:32.213Z,9.8375
2023-02-11T09:44:20.461Z,8.2
2023-02-11T09:47:26.824Z,9.6375
2023-02-11T09:51:20.092Z,11.7625
2023-02-11T09:54:25.227Z,10.125
2023-02-11T09:57:28.153Z,9.325
2023-02-11T10:01:34.673Z,12.1375
2023-02-11T10:04:28.988Z,9.725
2023-02-11T10:07:24.980Z,10.9375
2023-02-11T10:11:31.510Z,10.4
2023-02-11T10:14:29.579Z,9.975
2023-02-11T10:17:28.962Z,10.0375
2023-02-11T10:21:25.115Z,9.7
2023-02-11T10:24:18.052Z,8.8875
2023-02-11T10:27:21.143Z,9.275
2023-02-11T10:31:23.337Z,11.325000000000001
2023-02-11T10:34:17.495Z,9.7125
2023-02-11T10:37:17.444Z,9.325
2023-02-11T10:41:20.694Z,8.475000000000001
2023-02-11T10:44:24.237Z,8.337499999999999
2023-02-11T10:47:21.648Z,6.625
2023-02-11T10:51:20.187Z,7.875
2023-02-11T10:54:19.801Z,5.85
2023-02-11T10:57:18.790Z,5.9125000000000005
2023-02-11T11:01:24.219Z,7.5375
2023-02-11T11:04:38.832Z,7.2375
2023-02-11T11:07:20.765Z,6.8125
2023-02-11T11:11:18.789Z,7.5
2023-02-11T11:14:19.146Z,6.2375
2023-02-11T11:17:18.363Z,7.35
2023-02-11T11:21:20.750Z,6.275
2023-02-11T11:24:20.233Z,5.5125
2023-02-11T11:27:19.449Z,5.324999999999999
2023-02-11T11:31:23.698Z,7.612500000000001
2023-02-11T11:34:26.302Z,6.3125
2023-02-11T11:37:23.591Z,7
2023-02-11T11:41:20.592Z,7.1
2023-02-11T11:44:23.889Z,7.199999999999999
2023-02-11T11:47:25.512Z,6.25
2023-02-11T11:51:16.915Z,6.6125
2023-02-11T11:54:19.574Z,5.8375
2023-02-11T11:57:21.971Z,5.4
2023-02-11T12:01:27.718Z,6.5625
2023-02-11T12:04:32.783Z,6.3875
2023-02-11T12:07:27.562Z,5.5
2023-02-11T12:11:25.274Z,5.5375
2023-02-11T12:14:27.655Z,5.675
2023-02-11T12:17:30.923Z,5.762499999999999
2023-02-11T12:21:28.032Z,5.5625
2023-02-11T12:24:30.199Z,6.2375
2023-02-11T12:27:22.756Z,5.025
2023-02-11T12:31:31.051Z,5.9125
2023-02-11T12:34:33.921Z,5.175
2023-02-11T12:37:28.943Z,4.85
2023-02-11T12:41:31.124Z,5.2875
2023-02-11T12:44:32.694Z,4.5625
2023-02-11T12:47:26.422Z,5.8375
2023-02-11T12:51:28.549Z,6.2125
2023-02-11T12:54:23.647Z,5.0625
2023-02-11T12:57:21.676Z,6.0249999999999995
2023-02-11T13:01:21.683Z,4.975
2023-02-11T13:04:23.134Z,5.1
2023-02-11T13:07:25.310Z,5.2125
2023-02-11T13:11:22.166Z,5.762499999999999
2023-02-11T13:14:24.029Z,5.824999999999999
2023-02-11T13:17:25.090Z,5.1625
2023-02-11T13:21:29.324Z,5.775
2023-02-11T13:24:27.650Z,5.7875
2023-02-11T13:27:29.475Z,5.550000000000001
2023-02-11T13:31:20.688Z,5.387499999999999
2023-02-11T13:34:26.302Z,4.5249999999999995
2023-02-11T13:37:22.252Z,5.575
2023-02-11T13:41:19.535Z,6.5625
2023-02-11T13:44:26.044Z,4.887499999999999
2023-02-11T13:47:27.043Z,3.7499999999999996
2023-02-11T13:51:32.892Z,4.4125
2023-02-11T13:54:25.566Z,5.1875
2023-02-11T13:58:16.630Z,4.425
2023-02-11T14:01:39.200Z,4.0625
2023-02-11T14:21:20.026Z,4.3375
2023-02-11T14:24:54.160Z,3.8
2023-02-11T14:27:28.568Z,3.65
2023-02-11T14:31:21.674Z,4.75
2023-02-11T14:34:35.722Z,5.012499999999999
2023-02-11T14:37:27.560Z,5.325
2023-02-11T14:41:21.640Z,5.725
2023-02-11T14:44:21.500Z,6.125
2023-02-11T14:47:21.628Z,5.9875
2023-02-11T14:51:21.217Z,5.9624999999999995
2023-02-11T14:54:21.093Z,5.574999999999999
2023-02-11T14:57:19.449Z,4.824999999999999
2023-02-11T15:01:28.127Z,4.825
2023-02-11T15:04:25.371Z,4.95
2023-02-11T15:07:18.008Z,5.7
2023-02-11T15:11:19.669Z,5.324999999999999
2023-02-11T15:14:22.886Z,8.65
2023-02-11T15:17:24.923Z,15.0625
2023-02-11T15:21:21.328Z,10.162500000000001
2023-02-11T15:24:25.060Z,6.7125
2023-02-11T15:27:17.809Z,6.65
2023-02-11T15:31:19.415Z,7.6875
2023-02-11T15:34:19.177Z,7.449999999999999
2023-02-11T15:37:21.228Z,8.025
2023-02-11T15:41:34.953Z,8.275
2023-02-11T15:44:32.526Z,10.387500000000001
2023-02-11T15:47:19.982Z,8.225
2023-02-11T15:51:20.910Z,10.9625
2023-02-11T15:54:19.773Z,12.85
2023-02-11T15:57:21.388Z,14.1
2023-02-11T16:01:16.648Z,13.4875
2023-02-11T16:04:19.043Z,12.9875
2023-02-11T16:07:38.377Z,12.3375
2023-02-11T16:11:25.870Z,11.075000000000001
2023-02-11T16:14:22.713Z,9.012500000000001
2023-02-11T16:17:26.139Z,8.2875
2023-02-11T16:21:19.104Z,10.3875
2023-02-11T16:24:19.606Z,10.1
2023-02-11T16:27:22.946Z,10.625
2023-02-11T16:31:17.117Z,9.975000000000001
2023-02-11T16:34:19.609Z,9.524999999999999
2023-02-11T16:37:16.731Z,10.774999999999999
2023-02-11T16:41:16.492Z,12.75
2023-02-11T16:44:16.886Z,9.7
2023-02-11T16:47:21.565Z,9.987499999999999
2023-02-11T16:51:16.385Z,8.775
2023-02-11T16:54:17.647Z,8.425
2023-02-11T16:57:18.963Z,8.4875
2023-02-11T17:01:17.904Z,9.7125
2023-02-11T17:04:20.712Z,9.512500000000001
2023-02-11T17:07:17.146Z,9.825
2023-02-11T17:11:17.871Z,10.725000000000001
2023-02-11T17:14:17.071Z,8.1125
2023-02-11T17:17:16.813Z,10.3125
2023-02-11T17:21:16.926Z,11.600000000000001
2023-02-11T17:24:17.515Z,11.7625
2023-02-11T17:27:17.564Z,13.2
2023-02-11T17:31:17.027Z,32.7125
2023-02-11T17:34:17.913Z,24.300000000000004
2023-02-11T17:37:16.936Z,33.8125
2023-02-11T17:41:17.279Z,30.625
2023-02-11T17:44:17.645Z,17.137500000000003
2023-02-11T17:47:17.378Z,18.7875
2023-02-11T17:51:21.816Z,15.825
2023-02-11T17:54:19.156Z,11.8375
2023-02-11T17:57:17.098Z,11.2625
2023-02-11T18:01:16.586Z,11.7375
2023-02-11T18:04:18.570Z,10.5
2023-02-11T18:07:17.128Z,9.75
2023-02-11T18:11:17.966Z,12.837499999999999
2023-02-11T18:14:16.703Z,11.825
2023-02-11T18:17:16.695Z,11.15
2023-02-11T18:21:18.525Z,12.25
2023-02-11T18:24:18.094Z,10.462499999999999
2023-02-11T18:27:16.566Z,10.0875
2023-02-11T18:31:17.051Z,12.225000000000001
2023-02-11T18:34:17.388Z,11.075
2023-02-11T18:37:16.961Z,14.7125
2023-02-11T18:41:16.738Z,19.5375
2023-02-11T18:44:22.453Z,18.55
2023-02-11T18:47:17.034Z,16.75
2023-02-11T18:51:17.933Z,13.962499999999999
2023-02-11T18:54:16.844Z,12.3125
2023-02-11T18:57:16.829Z,14.899999999999999
2023-02-11T19:01:24.779Z,14.3
2023-02-11T19:04:20.426Z,14.3125
2023-02-11T19:07:23.793Z,14.112499999999999
2023-02-11T19:11:19.633Z,17.85
2023-02-11T19:14:21.043Z,16.45
2023-02-11T19:17:17.248Z,17.7875
2023-02-11T19:21:16.965Z,39.075
2023-02-11T19:24:20.990Z,28.950000000000003
2023-02-11T19:27:17.220Z,21.1625
2023-02-11T19:31:16.205Z,24.3125
2023-02-11T19:34:18.960Z,18.25
2023-02-11T19:37:16.649Z,14.424999999999999
2023-02-11T19:41:17.007Z,15.25
2023-02-11T19:44:17.786Z,12.3625
2023-02-11T19:47:17.339Z,13.3
2023-02-11T19:51:17.087Z,12.662500000000001
2023-02-11T19:54:16.600Z,12.5875
2023-02-11T19:57:16.727Z,16.9625
2023-02-11T20:01:20.070Z,19.9875
2023-02-11T20:04:17.384Z,23.3125
2023-02-11T20:07:17.439Z,21.15
2023-02-11T20:11:17.006Z,19.8
2023-02-11T20:14:17.250Z,16.6
2023-02-11T20:17:16.907Z,12.95
2023-02-11T20:21:18.305Z,13.85
2023-02-11T20:24:18.154Z,11.4875
2023-02-11T20:27:18.422Z,11.6
2023-02-11T20:31:17.676Z,10.3375
2023-02-11T20:34:18.144Z,11.8125
2023-02-11T20:37:17.807Z,10.0125
2023-02-11T20:41:18.760Z,13.162500000000001
2023-02-11T20:44:16.529Z,11.662500000000001
2023-02-11T20:47:16.577Z,9.8625
2023-02-11T20:51:19.715Z,9.85
2023-02-11T20:54:19.793Z,9.524999999999999
2023-02-11T20:57:16.927Z,11.462499999999999
2023-02-11T21:01:20.616Z,12.5
2023-02-11T21:04:21.388Z,13.7625
2023-02-11T21:07:18.106Z,14.625
2023-02-11T21:11:16.288Z,17.450000000000003
2023-02-11T21:14:18.859Z,19.424999999999997
2023-02-11T21:17:16.896Z,16.3125
2023-02-11T21:21:16.926Z,15.4875
2023-02-11T21:24:16.484Z,12.175
2023-02-11T21:27:16.260Z,10.1875
2023-02-11T21:31:19.471Z,11.2625
2023-02-11T21:34:16.480Z,8.05
2023-02-11T21:37:16.523Z,9.175
2023-02-11T21:41:16.960Z,11.05
2023-02-11T21:44:16.663Z,9.425
2023-02-11T21:47:16.645Z,7.8125
2023-02-11T21:51:18.901Z,9.3125
2023-02-11T21:54:18.785Z,8.3125
2023-02-11T21:57:17.534Z,8.7875
2023-02-11T22:01:17.277Z,8.1375
2023-02-11T22:04:17.280Z,9.6125
2023-02-11T22:07:16.271Z,8.95
2023-02-11T22:11:16.793Z,10.025
2023-02-11T22:14:17.237Z,8.175
2023-02-11T22:17:17.003Z,8.125
2023-02-11T22:21:19.514Z,8.3875
2023-02-11T22:24:16.816Z,8.350000000000001
2023-02-11T22:27:20.116Z,10.425
2023-02-11T22:31:17.812Z,9.7625
2023-02-11T22:34:15.946Z,9.2125
2023-02-11T22:37:16.052Z,8.5375
2023-02-11T22:41:17.715Z,7.7125
2023-02-11T22:44:17.392Z,7.862500000000001
2023-02-11T22:47:16.488Z,6.0125
2023-02-11T22:51:18.555Z,8.8125
2023-02-11T22:54:18.186Z,8.275
2023-02-11T22:57:16.382Z,7.1125
2023-02-11T23:01:17.506Z,7.2625
2023-02-11T23:04:17.294Z,6.525
2023-02-11T23:07:16.404Z,5.7875
2023-02-11T23:11:18.610Z,8.0875
2023-02-11T23:14:16.277Z,7.2875
2023-02-11T23:17:16.526Z,6.225
2023-02-11T23:21:19.144Z,6.7
2023-02-11T23:24:16.575Z,6.125
2023-02-11T23:27:16.230Z,6.0625
2023-02-11T23:31:18.360Z,6.949999999999999
2023-02-11T23:34:17.423Z,6.2875
2023-02-11T23:37:16.595Z,6.5
2023-02-11T23:41:16.781Z,8.6125
2023-02-11T23:44:16.591Z,7.7124999999999995
2023-02-11T23:47:16.693Z,6.875
2023-02-11T23:51:17.690Z,6.3625
2023-02-11T23:54:16.878Z,4.4750000000000005
2023-02-11T23:57:17.054Z,5.6000000000000005
